Saint-Lazare, Canada
Current Conditions -  °F | °C
As of 7:00 PM on Saturday 20 Dec 2014 (Local Time) from CYQB Reporting Station
Light Snow Light Snow  
Wind Chill: 11°   Ceiling: 1500
Heat Index: 19°   Visibility: 15mi
Dew Point: 16°   Wind: 6mph
Humidity: 86%   Direction: 80°E
Pressure: 30.37"   Gusts: NA
Location:  46.65°N, 70.8°W
Report Text: CYQB 210000Z 08005KT 350V110 15SM -SN OVC015 M07/M09 A3037 RMK SC8 SLP291
Loading
Personal Weather Stations






























Interactive Weather Map New forecast layout! Learn more

10-Day Weather Forecast

Advertisements
Track Severe Weather on mobile